This is the latest recevied weather packets stored in our database for station/object N1MCJ. If no packets are shown the sender has not sent any weather packets the latest 10 day(s).
| Time | Temp. | Humidity | Pressure | Rain* | Wind** | Luminosity | Snow |
|---|---|---|---|---|---|---|---|
| 1777993114 | 20° C | 62% | 1002.6 hPa | 0 mm | - | 68 W/m² | - |
| 1777992215 | 19.44° C | 65% | 1002.6 hPa | 0 mm | - | 216 W/m² | - |
| 1777991311 | 18.89° C | 67% | 1002.7 hPa | 0 mm | - | 50 W/m² | - |
| 1777990409 | 18.33° C | 69% | 1002.5 hPa | 0 mm | - | 131 W/m² | - |
| 1777989506 | 17.78° C | 69% | 1002.3 hPa | 0 mm | - | 72 W/m² | - |
| 1777988601 | 17.22° C | 71% | 1002.3 hPa | 0 mm | - | 267 W/m² | - |
| 1777987696 | 16.67° C | 73% | 1002.4 hPa | 0 mm | - | 70 W/m² | - |
| 1777986793 | 16.67° C | 75% | 1002.3 hPa | 0 mm | - | 54 W/m² | - |
| 1777985892 | 16.11° C | 77% | 1002.3 hPa | 0 mm | - | 171 W/m² | - |
| 1777984988 | 15° C | 82% | 1002.4 hPa | 0 mm | - | 64 W/m² | - |
| 1777984089 | 14.44° C | 84% | 1002.5 hPa | 0 mm | - | 56 W/m² | - |
| 1777983186 | 13.33° C | 87% | 1002.5 hPa | 0 mm | - | 127 W/m² | - |
| 1777982282 | 13.33° C | 89% | 1002.7 hPa | 0 mm | - | 39 W/m² | - |
| 1777981379 | 12.22° C | 91% | 1002.7 hPa | 0 mm | - | 36 W/m² | - |
| 1777980480 | 11.67° C | 95% | 1002.8 hPa | 0 mm | - | 35 W/m² | - |
| 1777979580 | 11.11° C | 97% | 1002.8 hPa | 0 mm | - | 16 W/m² | - |
| 1777978676 | 10.56° C | 98% | 1002.4 hPa | 0 mm | - | 31 W/m² | - |
| 1777977772 | 10° C | 98% | 1002.2 hPa | 0 mm | - | 26 W/m² | - |
| 1777976868 | 10° C | 98% | 1001.8 hPa | 0 mm | - | 12 W/m² | - |
| 1777975966 | 10° C | 98% | 1001.9 hPa | 0 mm | - | 5 W/m² | - |
| 1777975067 | 10° C | 98% | 1001.8 hPa | 0 mm | - | 0 W/m² | - |
| 1777974163 | 9.44° C | 98% | 1001.6 hPa | 0 mm | - | 0 W/m² | - |
| 1777973259 | 9.44° C | 98% | 1001.6 hPa | 0 mm | - | 0 W/m² | - |
| 1777972359 | 9.44° C | 97% | 1001.7 hPa | 0 mm | - | 0 W/m² | - |
| 1777971457 | 9.44° C | 97% | 1001.6 hPa | 0 mm | - | 0 W/m² | - |
* Rain latest hour (hover to see other rain measurements)
** Current wind speed in m/s (hover to see current wind gust speed)